Time;durP1;ratioP1;P1;durP2;ratioP2;P2;SDS_P1;SDS_P2;PMS_P1;PMS_P2;Temp;Humidity;BMP_temperature;BMP_pressure;BME280_temperature;BME280_humidity;BME280_pressure;Samples;Min_cycle;Max_cycle;Signal;HPM_P1;HPM_P2
2022/06/10 00:00:54;;;;;;;8.10;3.50;;;17.10;99.90;;;;;;5033633;28;20219;-71
2022/06/10 00:03:23;;;;;;;5.07;3.23;;;17.10;99.90;;;;;;5033369;28;20232;-70
2022/06/10 00:05:50;;;;;;;8.87;3.50;;;17.10;99.90;;;;;;5033598;28;20165;-72
2022/06/10 00:08:20;;;;;;;4.77;3.23;;;17.10;99.90;;;;;;5033517;28;20157;-72
2022/06/10 00:10:49;;;;;;;3.45;3.15;;;17.10;99.90;;;;;;5033680;28;20165;-72
2022/06/10 00:13:16;;;;;;;4.75;3.55;;;17.10;99.90;;;;;;5032764;28;20314;-70
2022/06/10 00:15:43;;;;;;;4.53;3.00;;;17.10;99.90;;;;;;5031624;28;20192;-72
2022/06/10 00:18:09;;;;;;;4.28;3.47;;;17.10;99.90;;;;;;5033168;28;20189;-72
2022/06/10 00:20:35;;;;;;;6.18;3.35;;;17.10;99.90;;;;;;5033370;28;20598;-72
2022/06/10 00:23:01;;;;;;;4.73;3.40;;;17.10;99.90;;;;;;5033119;28;20633;-72
2022/06/10 00:25:27;;;;;;;5.88;3.65;;;17.10;99.90;;;;;;5033000;28;20193;-71
2022/06/10 00:27:53;;;;;;;3.97;3.00;;;17.00;99.90;;;;;;5033112;28;20175;-71
2022/06/10 00:30:23;;;;;;;4.33;3.00;;;17.00;99.90;;;;;;5033625;28;20564;-71
2022/06/10 00:32:49;;;;;;;5.00;3.13;;;17.10;99.90;;;;;;5033051;28;20613;-71
2022/06/10 00:35:15;;;;;;;6.67;3.40;;;17.00;99.90;;;;;;5034098;28;20204;-72
2022/06/10 00:37:42;;;;;;;5.23;3.70;;;17.00;99.90;;;;;;5037066;28;20192;-70
2022/06/10 00:40:13;;;;;;;3.38;2.92;;;17.00;99.90;;;;;;5037060;28;20161;-71
2022/06/10 00:42:39;;;;;;;5.68;3.08;;;17.00;99.90;;;;;;5037310;28;20255;-71
2022/06/10 00:45:26;;;;;;;5.43;3.43;;;17.00;99.90;;;;;;5037268;28;20193;-70
2022/06/10 00:47:51;;;;;;;4.15;2.90;;;17.00;99.90;;;;;;5036708;28;20694;-72
2022/06/10 00:50:24;;;;;;;5.60;3.10;;;17.00;99.90;;;;;;5037460;28;20161;-73
2022/06/10 00:52:55;;;;;;;4.97;3.03;;;17.00;99.90;;;;;;5035560;28;20204;-71
2022/06/10 00:55:28;;;;;;;6.75;3.00;;;16.90;99.90;;;;;;5037234;28;20213;-71
2022/06/10 00:58:07;;;;;;;4.90;3.13;;;16.90;99.90;;;;;;5036692;28;20160;-73
2022/06/10 01:00:34;;;;;;;5.83;3.53;;;16.90;99.90;;;;;;5036771;28;20275;-71
2022/06/10 01:02:59;;;;;;;3.90;3.25;;;16.90;99.90;;;;;;5036903;28;20676;-70
2022/06/10 01:05:26;;;;;;;5.40;3.17;;;16.90;99.90;;;;;;5036387;28;20180;-72
2022/06/10 01:08:05;;;;;;;5.22;3.00;;;16.90;99.90;;;;;;5035400;28;20173;-70
2022/06/10 01:10:50;;;;;;;7.03;3.50;;;16.80;99.90;;;;;;5036563;28;20165;-72
2022/06/10 01:13:28;;;;;;;7.27;3.37;;;16.90;99.90;;;;;;5035913;28;20192;-73
2022/06/10 01:16:02;;;;;;;9.88;3.42;;;16.80;99.90;;;;;;5036903;28;20173;-71
2022/06/10 01:18:35;;;;;;;5.25;3.17;;;16.80;99.90;;;;;;5036577;28;20184;-72
2022/06/10 01:21:35;;;;;;;6.50;3.30;;;16.80;99.90;;;;;;5034865;28;20239;-71
2022/06/10 01:24:15;;;;;;;3.33;2.80;;;16.90;99.90;;;;;;5036503;28;20175;-72
2022/06/10 01:29:58;;;;;;;6.17;3.03;;;16.90;99.90;;;;;;5035780;28;20612;-72
2022/06/10 01:32:42;;;;;;;5.73;3.23;;;16.70;99.90;;;;;;5036296;28;20208;-73
2022/06/10 01:35:20;;;;;;;4.13;2.87;;;16.80;99.90;;;;;;5036405;28;20172;-75
2022/06/10 01:38:06;;;;;;;5.13;3.30;;;16.70;99.90;;;;;;5037842;28;20220;-71
2022/06/10 01:40:40;;;;;;;3.43;2.90;;;16.70;99.90;;;;;;5038067;28;20211;-71
2022/06/10 01:43:28;;;;;;;4.53;3.23;;;16.70;99.90;;;;;;5039417;28;20516;-72
2022/06/10 01:46:11;;;;;;;6.13;3.03;;;16.70;99.90;;;;;;5044302;28;20194;-71
2022/06/10 01:48:47;;;;;;;4.87;3.03;;;16.60;99.90;;;;;;5046772;28;20169;-72
2022/06/10 01:51:17;;;;;;;4.93;3.00;;;16.60;99.90;;;;;;5052474;28;20224;-72
2022/06/10 01:53:54;;;;;;;4.30;3.00;;;16.50;99.90;;;;;;5046258;28;20216;-73
2022/06/10 01:56:25;;;;;;;5.03;3.40;;;16.40;99.90;;;;;;5047597;28;20181;-71
2022/06/10 01:59:02;;;;;;;6.03;3.73;;;16.40;99.90;;;;;;5047137;28;20223;-71
2022/06/10 02:01:40;;;;;;;3.60;3.10;;;16.30;99.90;;;;;;5049114;28;20181;-72
2022/06/10 02:04:15;;;;;;;8.90;3.07;;;16.30;99.90;;;;;;5049042;28;20228;-73
2022/06/10 02:06:57;;;;;;;5.27;3.20;;;16.30;99.90;;;;;;5040246;28;20695;-71
2022/06/10 02:09:28;;;;;;;3.50;3.20;;;16.30;99.90;;;;;;5041816;28;20164;-70
2022/06/10 02:11:59;;;;;;;5.63;3.10;;;16.20;99.90;;;;;;5039370;28;20193;-70
2022/06/10 02:14:32;;;;;;;4.83;3.10;;;16.10;99.90;;;;;;5035497;28;20176;-72
2022/06/10 02:17:01;;;;;;;4.20;3.20;;;16.10;99.90;;;;;;5034240;28;20227;-71
2022/06/10 02:19:30;;;;;;;5.10;3.20;;;16.10;99.90;;;;;;5027561;28;20641;-70
2022/06/10 02:22:16;;;;;;;9.37;3.50;;;16.00;99.90;;;;;;5014562;28;20504;-71
2022/06/10 02:24:45;;;;;;;7.63;3.07;;;16.00;99.90;;;;;;5013829;28;20618;-70
2022/06/10 02:27:17;;;;;;;3.03;2.70;;;16.00;99.90;;;;;;5015454;28;20172;-71
2022/06/10 02:29:53;;;;;;;4.87;2.90;;;16.00;99.90;;;;;;5015548;28;20162;-71
2022/06/10 02:32:19;;;;;;;3.90;3.30;;;16.00;99.90;;;;;;5015160;28;20196;-71
2022/06/10 02:34:45;;;;;;;4.57;3.20;;;15.90;99.90;;;;;;5014993;28;20173;-71
2022/06/10 02:37:29;;;;;;;3.93;3.17;;;15.90;99.90;;;;;;5014928;28;20541;-71
2022/06/10 02:40:04;;;;;;;5.93;3.60;;;15.90;99.90;;;;;;5015680;28;20162;-71
2022/06/10 02:42:36;;;;;;;3.57;3.27;;;15.80;99.90;;;;;;5013939;28;20250;-71
2022/06/10 02:45:09;;;;;;;5.07;3.73;;;15.80;99.90;;;;;;5014595;28;20211;-70
2022/06/10 02:47:40;;;;;;;4.43;3.43;;;15.80;99.90;;;;;;5015173;28;20582;-71
2022/06/10 02:50:09;;;;;;;4.23;3.40;;;15.80;99.90;;;;;;5015563;28;20236;-71
2022/06/10 02:52:36;;;;;;;4.03;3.30;;;15.70;99.90;;;;;;5015040;28;20269;-71
2022/06/10 02:55:05;;;;;;;3.77;3.37;;;15.70;99.90;;;;;;5014900;28;20197;-71
2022/06/10 03:03:09;;;;;;;4.07;3.27;;;15.60;99.90;;;;;;5023969;28;20228;-72
2022/06/10 03:05:57;;;;;;;4.40;3.10;;;15.60;99.90;;;;;;5022964;28;20606;-71
2022/06/10 03:08:45;;;;;;;3.80;3.50;;;15.60;99.90;;;;;;5025733;28;20162;-70
2022/06/10 03:11:18;;;;;;;8.90;3.63;;;15.60;99.90;;;;;;5020251;28;20313;-72
2022/06/10 03:14:22;;;;;;;7.33;3.47;;;15.60;99.90;;;;;;5013349;28;20193;-71
2022/06/10 03:16:53;;;;;;;5.20;3.40;;;15.50;99.90;;;;;;5012383;28;20213;-72
2022/06/10 03:19:35;;;;;;;5.13;3.43;;;15.50;99.90;;;;;;5013132;28;20165;-71
2022/06/10 03:22:18;;;;;;;4.40;3.83;;;15.50;99.90;;;;;;5013718;28;20483;-72
2022/06/10 03:25:17;;;;;;;4.77;3.10;;;15.50;99.90;;;;;;5013941;28;20653;-72
2022/06/10 03:27:51;;;;;;;3.50;3.00;;;15.50;99.90;;;;;;5013070;28;20164;-72
2022/06/10 03:30:21;;;;;;;6.13;3.70;;;15.50;99.90;;;;;;5013179;28;20158;-71
2022/06/10 03:32:57;;;;;;;5.90;3.60;;;15.40;99.90;;;;;;5013426;28;20208;-71
2022/06/10 03:35:32;;;;;;;4.80;3.10;;;15.40;99.90;;;;;;5013591;28;20192;-72
2022/06/10 03:37:57;;;;;;;4.67;3.40;;;15.40;99.90;;;;;;5013656;28;20204;-71
2022/06/10 03:40:26;;;;;;;6.47;3.90;;;15.40;99.90;;;;;;5013637;28;20177;-71
2022/06/10 03:42:54;;;;;;;3.87;3.27;;;15.50;99.90;;;;;;5013543;28;20227;-71
2022/06/10 03:45:27;;;;;;;4.97;3.70;;;15.40;99.90;;;;;;5016418;28;20158;-71
2022/06/10 03:47:53;;;;;;;3.43;2.90;;;15.40;99.90;;;;;;5029952;28;20264;-71
2022/06/10 03:50:25;;;;;;;5.67;3.70;;;15.50;99.90;;;;;;5023544;28;20490;-73
2022/06/10 03:52:50;;;;;;;5.27;3.10;;;15.50;99.90;;;;;;5023214;28;20193;-71
2022/06/10 03:55:19;;;;;;;5.27;3.23;;;15.50;99.90;;;;;;5022711;28;20172;-72
2022/06/10 03:57:46;;;;;;;5.07;3.33;;;15.60;99.90;;;;;;5025137;28;20610;-73
2022/06/10 04:00:18;;;;;;;4.67;3.40;;;15.70;99.90;;;;;;5016812;28;20509;-71
2022/06/10 04:02:44;;;;;;;5.00;3.33;;;15.70;99.90;;;;;;4966405;28;1361670;-71
2022/06/10 04:05:11;;;;;;;6.43;3.57;;;15.70;99.90;;;;;;5013479;28;20266;-72
2022/06/10 04:07:38;;;;;;;4.47;3.23;;;15.70;99.90;;;;;;5012375;28;20656;-73
2022/06/10 04:10:05;;;;;;;4.73;3.70;;;15.70;99.90;;;;;;5014698;28;20189;-71
2022/06/10 04:12:31;;;;;;;3.53;3.13;;;15.80;99.90;;;;;;5017743;28;20664;-72
2022/06/10 04:14:56;;;;;;;4.17;3.10;;;15.80;99.90;;;;;;5016390;28;20264;-71
2022/06/10 04:17:22;;;;;;;5.27;2.97;;;15.70;99.90;;;;;;5017844;28;20176;-70
2022/06/10 04:19:48;;;;;;;4.13;3.40;;;15.80;99.90;;;;;;5027794;28;20265;-72
2022/06/10 04:22:13;;;;;;;5.83;3.57;;;15.80;99.90;;;;;;5037393;28;20196;-70
2022/06/10 04:24:39;;;;;;;4.50;3.50;;;15.90;99.90;;;;;;5036734;28;20165;-71
2022/06/10 04:27:05;;;;;;;5.57;3.97;;;15.90;99.90;;;;;;5036783;28;20165;-71
2022/06/10 04:29:31;;;;;;;7.30;2.90;;;15.90;99.90;;;;;;5037408;28;20173;-71
2022/06/10 04:31:57;;;;;;;3.77;3.07;;;15.90;99.90;;;;;;5037913;28;20197;-71
2022/06/10 04:34:22;;;;;;;3.43;3.13;;;15.90;99.90;;;;;;5037133;28;20161;-71
2022/06/10 04:36:48;;;;;;;5.93;3.43;;;16.00;99.90;;;;;;5037948;28;20248;-72
2022/06/10 04:39:14;;;;;;;4.20;3.33;;;16.00;99.90;;;;;;5038046;28;20165;-72
2022/06/10 04:41:40;;;;;;;3.27;2.97;;;15.90;99.90;;;;;;5042255;28;20157;-70
2022/06/10 04:44:05;;;;;;;6.27;2.80;;;15.80;99.90;;;;;;5041508;28;20176;-73
2022/06/10 04:46:35;;;;;;;3.47;3.13;;;15.90;99.90;;;;;;5044262;28;20165;-72
2022/06/10 04:49:00;;;;;;;8.17;3.90;;;16.00;99.90;;;;;;5045316;28;20222;-72
2022/06/10 04:51:26;;;;;;;4.13;2.90;;;16.00;99.90;;;;;;5044301;28;20573;-72
2022/06/10 04:53:52;;;;;;;5.57;3.17;;;16.00;99.90;;;;;;5046832;28;20223;-73
2022/06/10 04:56:18;;;;;;;8.63;3.33;;;16.00;99.90;;;;;;5047660;28;20164;-73
2022/06/10 04:58:44;;;;;;;5.53;3.00;;;16.00;99.90;;;;;;5047115;28;20157;-72
2022/06/10 05:01:09;;;;;;;3.50;3.00;;;16.10;99.90;;;;;;5047455;28;20251;-72
2022/06/10 05:03:35;;;;;;;4.77;3.30;;;16.20;99.90;;;;;;5046497;28;20255;-72
2022/06/10 05:06:01;;;;;;;5.27;3.00;;;16.20;99.90;;;;;;5047296;28;20227;-73
2022/06/10 05:08:26;;;;;;;4.17;3.50;;;16.20;99.90;;;;;;5045353;28;20177;-74
2022/06/10 05:10:52;;;;;;;4.43;2.93;;;16.20;99.90;;;;;;5045478;28;20219;-72
2022/06/10 05:13:20;;;;;;;9.43;3.60;;;16.30;99.90;;;;;;5046421;28;20259;-72
2022/06/10 05:15:46;;;;;;;5.17;3.00;;;16.30;99.90;;;;;;5047864;28;20161;-72
2022/06/10 05:18:15;;;;;;;3.27;2.97;;;16.30;99.90;;;;;;5046955;28;20161;-73
2022/06/10 05:20:42;;;;;;;3.77;2.90;;;16.50;99.90;;;;;;5036466;28;20192;-73
2022/06/10 05:23:10;;;;;;;3.10;2.50;;;16.50;99.90;;;;;;5036773;28;20226;-72
2022/06/10 05:25:37;;;;;;;4.43;3.10;;;16.50;99.90;;;;;;5036759;28;20589;-74
2022/06/10 05:28:03;;;;;;;5.50;2.70;;;16.60;99.90;;;;;;5035719;28;20234;-72
2022/06/10 05:30:31;;;;;;;4.87;2.60;;;16.70;99.90;;;;;;5036242;28;20169;-73
2022/06/10 05:32:58;;;;;;;4.57;2.73;;;16.70;99.90;;;;;;5036422;28;20235;-72
2022/06/10 05:35:24;;;;;;;5.53;2.87;;;16.80;99.90;;;;;;5035795;28;20169;-71
2022/06/10 05:37:50;;;;;;;3.17;2.27;;;16.90;99.90;;;;;;5035314;28;20219;-71
2022/06/10 05:40:17;;;;;;;5.00;2.90;;;17.00;99.90;;;;;;5036009;28;20592;-72
2022/06/10 05:42:43;;;;;;;2.43;2.23;;;17.10;99.90;;;;;;5035924;28;20199;-72
2022/06/10 05:45:11;;;;;;;5.57;3.07;;;17.10;99.90;;;;;;5036237;28;20199;-70
2022/06/10 05:47:37;;;;;;;4.87;2.37;;;17.20;99.90;;;;;;5040323;28;20161;-70
2022/06/10 05:50:10;;;;;;;2.15;2.00;;;17.10;99.90;;;;;;5038243;28;20199;-71
2022/06/10 05:52:36;;;;;;;3.80;2.10;;;17.20;99.90;;;;;;5034501;28;20209;-72
2022/06/10 05:55:06;;;;;;;2.88;2.05;;;17.30;99.90;;;;;;5036306;28;20157;-72
2022/06/10 05:57:31;;;;;;;2.10;1.90;;;17.20;99.90;;;;;;5035916;28;20172;-71
2022/06/10 05:59:57;;;;;;;3.92;2.03;;;17.20;99.90;;;;;;5036160;28;20505;-73
2022/06/10 06:02:24;;;;;;;2.72;2.20;;;17.30;99.90;;;;;;5035749;28;20184;-73
2022/06/10 06:04:50;;;;;;;2.42;2.22;;;17.50;99.90;;;;;;5033645;28;20323;-71
2022/06/10 06:07:22;;;;;;;2.05;1.73;;;17.60;99.90;;;;;;5035596;28;20161;-71
2022/06/10 06:09:48;;;;;;;2.38;1.70;;;17.60;99.90;;;;;;5035472;28;20359;-73
2022/06/10 06:12:14;;;;;;;3.07;2.00;;;17.50;99.90;;;;;;5035388;28;20591;-72
2022/06/10 06:14:40;;;;;;;4.63;2.17;;;17.50;99.90;;;;;;5035671;28;20164;-72
2022/06/10 06:17:06;;;;;;;2.13;1.90;;;17.70;99.90;;;;;;5036004;28;20161;-71
2022/06/10 06:19:33;;;;;;;2.65;1.58;;;17.80;99.90;;;;;;5039368;28;20255;-72
2022/06/10 06:21:58;;;;;;;1.95;1.83;;;17.90;99.90;;;;;;5039681;28;20180;-73
2022/06/10 06:24:25;;;;;;;2.20;1.90;;;18.00;99.90;;;;;;5039615;28;20169;-72
2022/06/10 06:26:51;;;;;;;2.60;1.70;;;17.90;99.90;;;;;;5041466;28;20172;-71
2022/06/10 06:29:18;;;;;;;4.22;1.70;;;18.00;99.90;;;;;;5043949;28;20169;-72
2022/06/10 06:31:43;;;;;;;2.58;1.75;;;18.10;99.90;;;;;;5043815;28;20172;-72
2022/06/10 06:34:09;;;;;;;4.30;2.00;;;18.20;99.90;;;;;;5041113;28;20161;-73
2022/06/10 06:36:45;;;;;;;2.42;1.60;;;18.20;99.90;;;;;;5036503;28;20165;-72
2022/06/10 06:39:11;;;;;;;1.75;1.40;;;18.40;99.90;;;;;;5034296;28;20152;-71
2022/06/10 06:41:37;;;;;;;3.60;1.70;;;18.40;99.90;;;;;;5033770;28;20192;-72
2022/06/10 06:44:05;;;;;;;3.67;2.10;;;18.60;99.90;;;;;;5034499;28;20613;-71
2022/06/10 06:46:32;;;;;;;2.10;1.67;;;18.50;99.90;;;;;;5034527;28;20153;-73
2022/06/10 06:48:57;;;;;;;3.78;1.75;;;18.50;99.90;;;;;;5037276;28;20157;-73
2022/06/10 06:51:23;;;;;;;3.33;1.27;;;18.80;99.90;;;;;;5042919;28;20173;-72
2022/06/10 06:53:49;;;;;;;2.20;1.77;;;18.80;99.90;;;;;;5039811;28;20196;-72
2022/06/10 06:56:14;;;;;;;1.50;1.40;;;19.00;99.90;;;;;;5040050;28;20161;-72
2022/06/10 06:58:40;;;;;;;2.25;1.63;;;19.00;99.90;;;;;;5043078;28;20278;-71
2022/06/10 07:01:06;;;;;;;2.20;1.60;;;19.10;99.90;;;;;;5036674;28;20259;-72
2022/06/10 07:03:31;;;;;;;4.03;1.85;;;19.20;99.90;;;;;;5034078;28;20232;-72
2022/06/10 07:05:57;;;;;;;5.10;1.85;;;19.20;99.90;;;;;;5033963;28;20157;-72
2022/06/10 07:08:30;;;;;;;2.72;1.88;;;19.10;99.90;;;;;;5034207;28;20196;-71
2022/06/10 07:11:00;;;;;;;5.32;2.15;;;19.00;99.90;;;;;;5033685;28;20157;-73
2022/06/10 07:13:26;;;;;;;1.67;1.58;;;19.00;99.90;;;;;;5034108;28;20228;-71
2022/06/10 07:15:53;;;;;;;2.88;1.60;;;19.00;99.90;;;;;;5034072;28;20188;-73
2022/06/10 07:18:18;;;;;;;4.50;1.80;;;19.00;99.90;;;;;;5033839;28;20192;-72
2022/06/10 07:20:44;;;;;;;4.55;1.55;;;19.10;99.90;;;;;;5034028;28;20596;-72
2022/06/10 07:23:10;;;;;;;3.10;1.80;;;19.10;99.90;;;;;;5034301;28;20157;-72
2022/06/10 07:25:36;;;;;;;2.20;1.52;;;19.00;99.90;;;;;;5033708;28;20514;-72
2022/06/10 07:28:02;;;;;;;2.13;1.45;;;19.00;99.90;;;;;;5034095;28;20612;-71
2022/06/10 07:30:30;;;;;;;2.80;1.75;;;19.20;99.90;;;;;;5034222;28;20156;-71
2022/06/10 07:33:00;;;;;;;5.43;2.00;;;19.20;99.90;;;;;;5033836;28;20201;-72
2022/06/10 07:35:27;;;;;;;2.28;1.60;;;19.20;99.90;;;;;;5033736;28;20593;-70
2022/06/10 07:37:53;;;;;;;4.07;1.88;;;19.30;99.90;;;;;;5033741;28;20180;-71
2022/06/10 07:43:25;;;;;;;3.00;2.00;;;19.40;99.90;;;;;;5033398;28;20176;-72
2022/06/10 07:45:51;;;;;;;2.92;1.95;;;19.40;99.90;;;;;;5033191;28;20252;-73
2022/06/10 07:48:18;;;;;;;2.88;1.77;;;19.50;99.90;;;;;;5034116;28;20169;-70
2022/06/10 07:50:45;;;;;;;3.58;1.80;;;19.50;99.90;;;;;;5033878;28;20168;-72
2022/06/10 07:53:11;;;;;;;3.70;1.83;;;19.40;99.90;;;;;;5032768;28;20547;-70
2022/06/10 07:55:38;;;;;;;5.65;1.60;;;19.50;99.90;;;;;;5034209;28;20219;-72
2022/06/10 07:58:05;;;;;;;6.18;1.70;;;19.50;99.90;;;;;;5033817;28;20161;-70
2022/06/10 08:00:31;;;;;;;3.35;1.55;;;19.50;99.90;;;;;;5034027;28;20263;-72
2022/06/10 08:02:59;;;;;;;3.13;2.00;;;19.60;99.90;;;;;;5033832;28;20642;-72
2022/06/10 08:05:25;;;;;;;3.35;1.80;;;19.80;99.90;;;;;;5033503;28;20165;-72
2022/06/10 08:07:51;;;;;;;3.58;1.80;;;20.00;99.90;;;;;;5032671;28;20574;-73
2022/06/10 08:10:32;;;;;;;4.50;2.10;;;19.90;99.90;;;;;;5033846;28;20172;-71
2022/06/10 08:12:58;;;;;;;2.15;1.60;;;19.80;99.90;;;;;;5033260;28;20197;-71
2022/06/10 08:15:24;;;;;;;8.98;1.90;;;20.00;99.90;;;;;;5033065;28;20248;-72
2022/06/10 08:17:51;;;;;;;2.40;1.70;;;19.90;99.90;;;;;;5033440;28;20589;-73
2022/06/10 08:23:15;;;;;;;4.70;1.55;;;20.40;99.90;;;;;;5033150;28;20176;-72
2022/06/10 08:25:42;;;;;;;5.65;1.67;;;20.00;99.90;;;;;;5033390;28;20164;-73
2022/06/10 08:28:08;;;;;;;4.57;1.77;;;20.20;99.90;;;;;;5033977;28;20197;-72
2022/06/10 08:30:35;;;;;;;4.47;1.90;;;20.60;99.90;;;;;;5036918;28;20158;-73
2022/06/10 08:33:03;;;;;;;6.63;1.77;;;20.70;99.90;;;;;;5043895;28;20204;-72
2022/06/10 08:35:32;;;;;;;3.08;1.45;;;20.50;99.90;;;;;;5045502;28;20207;-77
2022/06/10 08:37:59;;;;;;;6.78;2.03;;;20.40;99.90;;;;;;5047764;28;20153;-72
2022/06/10 08:40:39;;;;;;;2.47;1.60;;;20.20;99.90;;;;;;5043445;28;20168;-71
2022/06/10 08:43:40;;;;;;;2.22;1.75;;;20.60;99.90;;;;;;5033268;28;20199;-72
2022/06/10 08:46:16;;;;;;;4.25;1.70;;;20.70;99.90;;;;;;5033179;28;20513;-72
2022/06/10 08:48:50;;;;;;;3.25;1.70;;;20.40;99.90;;;;;;5033530;28;20173;-72
2022/06/10 08:51:41;;;;;;;5.10;1.90;;;20.70;99.90;;;;;;5035110;28;20161;-73
2022/06/10 08:54:22;;;;;;;6.60;1.88;;;20.80;99.90;;;;;;5037656;28;20255;-73
2022/06/10 08:56:50;;;;;;;4.50;1.85;;;21.20;99.90;;;;;;5040874;28;20596;-73
2022/06/10 08:59:28;;;;;;;4.10;1.90;;;21.20;99.90;;;;;;5042329;28;20555;-72
2022/06/10 09:02:05;;;;;;;2.92;1.98;;;21.20;99.90;;;;;;5039424;28;20628;-71
2022/06/10 09:04:43;;;;;;;4.05;1.75;;;20.80;99.90;;;;;;5036472;28;20688;-73
2022/06/10 09:07:23;;;;;;;3.42;1.85;;;20.80;99.90;;;;;;5036598;28;20252;-72
2022/06/10 09:09:48;;;;;;;7.80;1.90;;;20.90;99.90;;;;;;5036627;28;20250;-72
2022/06/10 09:12:43;;;;;;;2.38;1.70;;;21.20;99.90;;;;;;5037008;28;20253;-71
2022/06/10 09:15:10;;;;;;;3.03;2.10;;;21.30;99.90;;;;;;5036210;28;20631;-70
2022/06/10 09:17:39;;;;;;;5.28;1.83;;;21.90;99.90;;;;;;5036633;28;20165;-72
2022/06/10 09:20:15;;;;;;;4.82;1.95;;;21.70;99.90;;;;;;5036655;28;20173;-74
2022/06/10 09:23:04;;;;;;;2.25;1.67;;;21.40;99.90;;;;;;5036082;28;20173;-71
2022/06/10 09:25:45;;;;;;;4.95;1.92;;;21.60;99.90;;;;;;5035319;28;20185;-71
2022/06/10 09:28:12;;;;;;;4.18;2.10;;;21.50;99.90;;;;;;5036348;28;20318;-72
2022/06/10 09:31:06;;;;;;;3.53;1.80;;;21.10;99.90;;;;;;5036092;28;20161;-73
2022/06/10 09:34:06;;;;;;;4.65;2.25;;;20.80;99.90;;;;;;5035755;28;20208;-71
2022/06/10 09:36:40;;;;;;;3.95;1.90;;;21.50;99.90;;;;;;5031989;28;20195;-73
2022/06/10 09:40:35;;;;;;;4.90;1.95;;;22.00;99.90;;;;;;5036862;28;20179;-72
2022/06/10 09:42:16;;;;;;;5.53;1.67;;;21.70;99.90;;;;;;5035615;28;20605;-73
2022/06/10 09:44:51;;;;;;;5.88;2.00;;;21.90;99.90;;;;;;5034978;28;20246;-71
2022/06/10 09:47:47;;;;;;;6.80;2.10;;;21.70;99.90;;;;;;5035811;28;20160;-71
2022/06/10 09:50:19;;;;;;;2.53;1.92;;;21.50;99.90;;;;;;5035679;28;20502;-71
2022/06/10 09:52:50;;;;;;;3.08;1.73;;;21.30;99.90;;;;;;5035423;28;20668;-71
2022/06/10 09:55:28;;;;;;;6.30;2.10;;;21.30;99.90;;;;;;5035685;28;20203;-72
2022/06/10 09:58:19;;;;;;;7.30;1.92;;;21.70;99.90;;;;;;5035730;28;20175;-71
2022/06/10 10:01:00;;;;;;;4.30;1.77;;;22.30;99.90;;;;;;5035930;28;20243;-71
2022/06/10 10:03:45;;;;;;;2.45;1.60;;;22.50;99.90;;;;;;5035784;28;20259;-71
2022/06/10 10:06:43;;;;;;;5.57;2.00;;;22.00;99.90;;;;;;5035348;28;20165;-72
2022/06/10 10:09:25;;;;;;;1.80;1.67;;;22.10;99.90;;;;;;5030979;28;20231;-71
2022/06/10 10:12:09;;;;;;;4.18;1.88;;;22.60;99.90;;;;;;5035346;28;20176;-70
2022/06/10 10:14:41;;;;;;;3.17;1.65;;;23.00;99.90;;;;;;5033560;28;20216;-72
2022/06/10 10:17:28;;;;;;;3.97;1.83;;;23.10;99.90;;;;;;5035189;28;20161;-72
2022/06/10 10:20:39;;;;;;;4.35;2.05;;;23.20;99.90;;;;;;5034928;28;20169;-71
2022/06/10 10:23:19;;;;;;;3.65;1.88;;;23.30;99.90;;;;;;5035438;28;20620;-73
2022/06/10 10:25:46;;;;;;;2.35;1.70;;;23.40;99.90;;;;;;5034496;28;20161;-72
2022/06/10 10:28:22;;;;;;;4.40;1.80;;;23.40;99.90;;;;;;5034969;28;20179;-71
2022/06/10 10:30:58;;;;;;;2.10;1.90;;;22.80;99.90;;;;;;5035051;28;20165;-72
2022/06/10 10:33:24;;;;;;;5.03;2.15;;;22.90;99.90;;;;;;5033353;28;20239;-73
2022/06/10 10:35:53;;;;;;;2.20;1.65;;;23.10;99.90;;;;;;5034838;28;20169;-72
2022/06/10 10:38:30;;;;;;;2.95;1.60;;;23.60;99.90;;;;;;5035000;28;20157;-72
2022/06/10 10:40:56;;;;;;;9.38;1.85;;;23.70;99.90;;;;;;5034545;28;20169;-72
2022/06/10 10:43:24;;;;;;;2.10;1.70;;;23.70;99.60;;;;;;5034889;28;20264;-72
2022/06/10 10:46:05;;;;;;;4.53;2.03;;;24.00;98.50;;;;;;5035996;28;20165;-73
2022/06/10 10:48:35;;;;;;;3.30;1.70;;;24.20;98.50;;;;;;5034578;28;20781;-71
2022/06/10 10:51:17;;;;;;;7.45;2.03;;;24.10;97.60;;;;;;5036044;28;20196;-72
2022/06/10 10:53:46;;;;;;;4.68;1.73;;;23.60;99.20;;;;;;5039712;28;20218;-71
2022/06/10 10:56:14;;;;;;;4.38;1.80;;;23.30;99.90;;;;;;5041119;28;20164;-72
2022/06/10 10:58:48;;;;;;;2.92;1.77;;;23.50;99.90;;;;;;5040370;28;20167;-75
2022/06/10 11:03:58;;;;;;;2.10;1.60;;;23.50;99.90;;;;;;5034667;28;20320;-73
2022/06/10 11:06:26;;;;;;;4.55;1.60;;;23.40;99.90;;;;;;5034725;28;20185;-72
2022/06/10 11:09:13;;;;;;;4.28;1.70;;;23.70;97.60;;;;;;5034152;28;20234;-73
2022/06/10 11:11:41;;;;;;;3.45;1.50;;;23.80;99.00;;;;;;5034485;28;20611;-70
2022/06/10 11:14:23;;;;;;;2.65;1.70;;;23.40;99.90;;;;;;5034614;28;20192;-71
2022/06/10 11:17:00;;;;;;;5.60;1.75;;;23.90;98.00;;;;;;5033861;28;20157;-73
2022/06/10 11:19:31;;;;;;;3.92;2.00;;;23.70;99.30;;;;;;5033556;28;20496;-72
2022/06/10 11:22:23;;;;;;;1.83;1.65;;;24.00;98.20;;;;;;5034080;28;20169;-73
2022/06/10 11:24:54;;;;;;;4.60;3.72;;;24.10;93.70;;;;;;5033877;28;20327;-71
2022/06/10 11:27:39;;;;;;;9.50;4.70;;;24.30;85.90;;;;;;5033650;28;20157;-71
2022/06/10 11:30:10;;;;;;;4.60;2.10;;;24.30;90.60;;;;;;5034228;28;20491;-72
2022/06/10 11:32:48;;;;;;;4.25;1.75;;;24.40;90.40;;;;;;5033457;28;20279;-71
2022/06/10 11:35:32;;;;;;;1.75;1.40;;;24.60;92.50;;;;;;5033771;28;20160;-71
2022/06/10 11:38:22;;;;;;;2.50;1.60;;;25.10;92.00;;;;;;5033575;28;20200;-71
2022/06/10 11:40:48;;;;;;;3.25;1.80;;;25.10;90.80;;;;;;5033504;28;20168;-72
2022/06/10 11:43:16;;;;;;;2.17;1.48;;;25.40;91.00;;;;;;5033741;28;20264;-73
2022/06/10 11:46:12;;;;;;;2.40;1.55;;;25.40;86.20;;;;;;5033957;28;20165;-72
2022/06/10 11:48:45;;;;;;;2.45;1.40;;;25.30;86.00;;;;;;5033398;28;20223;-71
2022/06/10 11:51:17;;;;;;;2.75;1.55;;;24.40;88.10;;;;;;5033053;28;20176;-71
2022/06/10 11:53:45;;;;;;;1.65;1.55;;;24.70;89.40;;;;;;5033310;28;20193;-73
2022/06/10 12:02:09;;;;;;;5.07;1.92;;;23.80;91.60;;;;;;5033423;28;20186;-73
2022/06/10 12:04:40;;;;;;;1.98;1.30;;;23.70;91.30;;;;;;5031526;28;20264;-73
2022/06/10 12:07:14;;;;;;;2.63;1.50;;;24.20;93.50;;;;;;5033030;28;20161;-71
2022/06/10 12:09:51;;;;;;;5.13;1.50;;;24.90;85.70;;;;;;5033380;28;20581;-71
2022/06/10 12:12:29;;;;;;;3.47;2.15;;;25.00;81.90;;;;;;5032677;28;20207;-72
2022/06/10 12:14:58;;;;;;;2.45;1.80;;;25.30;80.70;;;;;;5032118;28;20189;-72
2022/06/10 12:17:38;;;;;;;2.22;1.40;;;25.30;81.30;;;;;;5031340;28;20177;-73
2022/06/10 12:20:13;;;;;;;2.55;1.63;;;25.30;78.60;;;;;;5033630;28;20700;-73
2022/06/10 12:22:39;;;;;;;1.98;1.60;;;25.30;77.10;;;;;;5032098;28;20183;-74
2022/06/10 12:25:21;;;;;;;2.88;1.52;;;25.20;78.00;;;;;;5032798;28;20161;-76
2022/06/10 12:28:00;;;;;;;3.10;1.67;;;25.30;76.00;;;;;;5032537;28;20181;-76
2022/06/10 12:30:35;;;;;;;4.32;1.70;;;25.40;75.80;;;;;;5033502;28;20185;-72
2022/06/10 12:33:30;;;;;;;1.95;1.48;;;25.00;76.00;;;;;;5036388;28;20613;-70
2022/06/10 12:35:56;;;;;;;2.67;1.38;;;24.90;76.80;;;;;;5036542;28;20165;-72
2022/06/10 12:38:30;;;;;;;2.60;1.55;;;25.40;77.80;;;;;;5036872;28;20624;-72
2022/06/10 12:41:10;;;;;;;1.80;1.40;;;26.10;73.70;;;;;;5036572;28;20157;-71
2022/06/10 12:43:46;;;;;;;3.13;1.60;;;25.50;69.70;;;;;;5036353;28;20503;-72
2022/06/10 12:46:45;;;;;;;3.28;1.52;;;25.80;69.40;;;;;;5036584;28;20180;-70
2022/06/10 12:49:35;;;;;;;2.55;1.40;;;25.80;69.20;;;;;;5036519;28;20177;-72
2022/06/10 12:52:00;;;;;;;5.05;1.55;;;25.90;71.80;;;;;;5037393;28;20214;-74
2022/06/10 12:55:01;;;;;;;3.85;1.40;;;26.00;70.70;;;;;;5039454;28;20169;-72
2022/06/10 12:57:40;;;;;;;2.50;1.40;;;25.80;70.70;;;;;;5041694;28;20219;-72
2022/06/10 13:00:18;;;;;;;3.38;1.70;;;25.10;73.00;;;;;;5046592;28;20165;-72
2022/06/10 13:02:46;;;;;;;3.58;1.77;;;25.40;75.50;;;;;;5044927;28;20176;-72
2022/06/10 13:05:27;;;;;;;2.88;1.70;;;25.60;74.10;;;;;;5035408;28;20263;-70
2022/06/10 13:07:55;;;;;;;5.32;1.50;;;25.70;73.90;;;;;;5036485;28;20161;-71
2022/06/10 13:10:30;;;;;;;4.15;1.50;;;26.00;74.90;;;;;;5035997;28;20162;-72
2022/06/10 13:13:16;;;;;;;2.15;1.60;;;26.20;72.60;;;;;;5036032;28;20659;-73
2022/06/10 13:15:45;;;;;;;2.28;1.40;;;26.60;71.40;;;;;;5035691;28;20196;-71
2022/06/10 13:18:32;;;;;;;4.32;1.70;;;26.50;69.90;;;;;;5035350;28;20240;-72
2022/06/10 13:21:12;;;;;;;2.65;1.65;;;25.90;69.60;;;;;;5035622;28;20566;-73
2022/06/10 13:24:11;;;;;;;3.95;1.65;;;26.00;70.90;;;;;;5035582;28;20161;-71
2022/06/10 13:26:37;;;;;;;1.40;1.30;;;25.50;72.10;;;;;;5034492;28;20621;-71
2022/06/10 13:29:12;;;;;;;2.70;1.50;;;24.80;73.90;;;;;;5035715;28;20200;-70
2022/06/10 13:31:47;;;;;;;3.25;1.30;;;24.50;75.90;;;;;;5035345;28;20156;-71
2022/06/10 13:34:24;;;;;;;1.88;1.35;;;24.60;78.10;;;;;;5035117;28;20306;-72
2022/06/10 13:36:58;;;;;;;2.10;1.50;;;24.60;78.90;;;;;;5035494;28;20183;-71
2022/06/10 13:39:31;;;;;;;1.48;1.38;;;24.90;80.20;;;;;;5034958;28;20263;-72